sensor_id;sensor_type;location;lat;lon;timestamp;P1;durP1;ratioP1;P2;durP2;ratioP2
56037;SDS011;41907;47.848;9.000;2023-07-16T00:02:24;7.00;;;4.10;;
56037;SDS011;41907;47.848;9.000;2023-07-16T00:04:49;6.80;;;4.00;;
56037;SDS011;41907;47.848;9.000;2023-07-16T00:07:14;6.38;;;3.42;;
56037;SDS011;41907;47.848;9.000;2023-07-16T00:09:40;5.05;;;3.47;;
56037;SDS011;41907;47.848;9.000;2023-07-16T00:12:05;5.55;;;3.88;;
56037;SDS011;41907;47.848;9.000;2023-07-16T00:14:31;5.38;;;3.75;;
56037;SDS011;41907;47.848;9.000;2023-07-16T00:16:57;7.30;;;3.85;;
56037;SDS011;41907;47.848;9.000;2023-07-16T00:19:22;6.43;;;3.63;;
56037;SDS011;41907;47.848;9.000;2023-07-16T00:21:48;8.35;;;4.68;;
56037;SDS011;41907;47.848;9.000;2023-07-16T00:24:13;6.85;;;4.13;;
56037;SDS011;41907;47.848;9.000;2023-07-16T00:26:38;5.95;;;3.80;;
56037;SDS011;41907;47.848;9.000;2023-07-16T00:29:04;4.50;;;3.53;;
56037;SDS011;41907;47.848;9.000;2023-07-16T00:31:29;5.35;;;3.53;;
56037;SDS011;41907;47.848;9.000;2023-07-16T00:33:55;6.75;;;3.85;;
56037;SDS011;41907;47.848;9.000;2023-07-16T00:36:21;5.40;;;3.63;;
56037;SDS011;41907;47.848;9.000;2023-07-16T00:38:46;6.53;;;3.60;;
56037;SDS011;41907;47.848;9.000;2023-07-16T00:41:13;7.25;;;4.10;;
56037;SDS011;41907;47.848;9.000;2023-07-16T00:43:39;7.97;;;3.75;;
56037;SDS011;41907;47.848;9.000;2023-07-16T00:46:04;5.75;;;4.07;;
56037;SDS011;41907;47.848;9.000;2023-07-16T00:48:30;7.35;;;4.18;;
56037;SDS011;41907;47.848;9.000;2023-07-16T00:50:56;5.38;;;3.67;;
56037;SDS011;41907;47.848;9.000;2023-07-16T00:53:22;6.72;;;3.42;;
56037;SDS011;41907;47.848;9.000;2023-07-16T00:55:48;4.55;;;2.60;;
56037;SDS011;41907;47.848;9.000;2023-07-16T00:58:13;4.85;;;2.20;;
56037;SDS011;41907;47.848;9.000;2023-07-16T01:00:39;2.15;;;1.30;;
56037;SDS011;41907;47.848;9.000;2023-07-16T01:03:06;1.60;;;1.30;;
56037;SDS011;41907;47.848;9.000;2023-07-16T01:05:56;1.77;;;1.40;;
56037;SDS011;41907;47.848;9.000;2023-07-16T01:08:48;2.95;;;1.20;;
56037;SDS011;41907;47.848;9.000;2023-07-16T01:11:26;1.65;;;1.02;;
56037;SDS011;41907;47.848;9.000;2023-07-16T01:13:52;1.88;;;1.00;;
56037;SDS011;41907;47.848;9.000;2023-07-16T01:16:22;4.20;;;1.15;;
56037;SDS011;41907;47.848;9.000;2023-07-16T01:18:50;1.98;;;1.10;;
56037;SDS011;41907;47.848;9.000;2023-07-16T01:21:16;2.75;;;1.08;;
56037;SDS011;41907;47.848;9.000;2023-07-16T01:29:29;2.50;;;1.20;;
56037;SDS011;41907;47.848;9.000;2023-07-16T01:31:59;3.97;;;1.20;;
56037;SDS011;41907;47.848;9.000;2023-07-16T01:34:28;2.55;;;1.30;;
56037;SDS011;41907;47.848;9.000;2023-07-16T01:36:56;2.83;;;1.25;;
56037;SDS011;41907;47.848;9.000;2023-07-16T01:39:21;2.65;;;1.65;;
56037;SDS011;41907;47.848;9.000;2023-07-16T01:41:47;3.38;;;2.47;;
56037;SDS011;41907;47.848;9.000;2023-07-16T01:44:12;3.75;;;2.42;;
56037;SDS011;41907;47.848;9.000;2023-07-16T01:46:38;1.83;;;1.60;;
56037;SDS011;41907;47.848;9.000;2023-07-16T01:49:03;3.00;;;1.33;;
56037;SDS011;41907;47.848;9.000;2023-07-16T01:53:54;3.33;;;1.35;;
56037;SDS011;41907;47.848;9.000;2023-07-16T01:56:19;2.20;;;1.35;;
56037;SDS011;41907;47.848;9.000;2023-07-16T01:58:45;3.58;;;1.58;;
56037;SDS011;41907;47.848;9.000;2023-07-16T02:01:10;2.95;;;1.05;;
56037;SDS011;41907;47.848;9.000;2023-07-16T02:06:01;1.80;;;1.40;;
56037;SDS011;41907;47.848;9.000;2023-07-16T02:08:26;1.70;;;1.30;;
56037;SDS011;41907;47.848;9.000;2023-07-16T02:10:51;5.32;;;1.30;;
56037;SDS011;41907;47.848;9.000;2023-07-16T02:13:17;2.75;;;1.15;;
56037;SDS011;41907;47.848;9.000;2023-07-16T02:15:43;2.92;;;1.75;;
56037;SDS011;41907;47.848;9.000;2023-07-16T02:18:08;3.80;;;1.80;;
56037;SDS011;41907;47.848;9.000;2023-07-16T02:20:34;4.80;;;1.90;;
56037;SDS011;41907;47.848;9.000;2023-07-16T02:22:59;18.88;;;15.85;;
56037;SDS011;41907;47.848;9.000;2023-07-16T02:25:24;9.10;;;8.00;;
56037;SDS011;41907;47.848;9.000;2023-07-16T02:27:50;22.30;;;16.25;;
56037;SDS011;41907;47.848;9.000;2023-07-16T02:30:16;4.80;;;3.80;;
56037;SDS011;41907;47.848;9.000;2023-07-16T02:32:41;9.25;;;6.00;;
56037;SDS011;41907;47.848;9.000;2023-07-16T02:35:07;10.73;;;8.40;;
56037;SDS011;41907;47.848;9.000;2023-07-16T02:37:33;29.40;;;20.05;;
56037;SDS011;41907;47.848;9.000;2023-07-16T02:39:58;63.63;;;46.20;;
56037;SDS011;41907;47.848;9.000;2023-07-16T02:42:24;30.90;;;23.20;;
56037;SDS011;41907;47.848;9.000;2023-07-16T02:44:49;18.00;;;12.55;;
56037;SDS011;41907;47.848;9.000;2023-07-16T02:47:15;69.32;;;50.90;;
56037;SDS011;41907;47.848;9.000;2023-07-16T02:49:40;23.90;;;17.17;;
56037;SDS011;41907;47.848;9.000;2023-07-16T02:52:05;22.48;;;18.02;;
56037;SDS011;41907;47.848;9.000;2023-07-16T02:54:31;36.60;;;25.95;;
56037;SDS011;41907;47.848;9.000;2023-07-16T02:56:57;29.77;;;23.00;;
56037;SDS011;41907;47.848;9.000;2023-07-16T02:59:23;18.92;;;15.20;;
56037;SDS011;41907;47.848;9.000;2023-07-16T03:01:48;28.50;;;22.50;;
56037;SDS011;41907;47.848;9.000;2023-07-16T03:04:15;35.30;;;29.48;;
56037;SDS011;41907;47.848;9.000;2023-07-16T03:06:40;20.88;;;17.92;;
56037;SDS011;41907;47.848;9.000;2023-07-16T03:09:05;7.47;;;5.45;;
56037;SDS011;41907;47.848;9.000;2023-07-16T03:11:31;9.85;;;6.57;;
56037;SDS011;41907;47.848;9.000;2023-07-16T03:13:56;3.25;;;2.40;;
56037;SDS011;41907;47.848;9.000;2023-07-16T03:16:22;9.77;;;6.32;;
56037;SDS011;41907;47.848;9.000;2023-07-16T03:18:47;12.45;;;9.45;;
56037;SDS011;41907;47.848;9.000;2023-07-16T03:21:13;18.42;;;13.35;;
56037;SDS011;41907;47.848;9.000;2023-07-16T03:23:38;8.85;;;7.07;;
56037;SDS011;41907;47.848;9.000;2023-07-16T03:26:04;16.58;;;12.25;;
56037;SDS011;41907;47.848;9.000;2023-07-16T03:28:29;11.10;;;8.55;;
56037;SDS011;41907;47.848;9.000;2023-07-16T03:30:54;14.00;;;9.73;;
56037;SDS011;41907;47.848;9.000;2023-07-16T03:33:20;12.40;;;9.38;;
56037;SDS011;41907;47.848;9.000;2023-07-16T03:35:46;23.83;;;17.48;;
56037;SDS011;41907;47.848;9.000;2023-07-16T03:38:12;23.30;;;19.75;;
56037;SDS011;41907;47.848;9.000;2023-07-16T03:40:38;6.10;;;5.50;;
56037;SDS011;41907;47.848;9.000;2023-07-16T03:43:04;6.25;;;3.65;;
56037;SDS011;41907;47.848;9.000;2023-07-16T03:45:29;11.45;;;8.45;;
56037;SDS011;41907;47.848;9.000;2023-07-16T03:47:55;16.02;;;9.95;;
56037;SDS011;41907;47.848;9.000;2023-07-16T03:50:20;9.70;;;6.28;;
56037;SDS011;41907;47.848;9.000;2023-07-16T03:52:46;4.78;;;4.20;;
56037;SDS011;41907;47.848;9.000;2023-07-16T03:55:12;3.80;;;1.92;;
56037;SDS011;41907;47.848;9.000;2023-07-16T03:57:37;2.30;;;1.77;;
56037;SDS011;41907;47.848;9.000;2023-07-16T04:00:03;2.22;;;1.40;;
56037;SDS011;41907;47.848;9.000;2023-07-16T04:02:32;2.33;;;1.92;;
56037;SDS011;41907;47.848;9.000;2023-07-16T04:04:58;5.65;;;3.40;;
56037;SDS011;41907;47.848;9.000;2023-07-16T04:07:23;34.13;;;22.40;;
56037;SDS011;41907;47.848;9.000;2023-07-16T04:09:48;13.10;;;9.25;;
56037;SDS011;41907;47.848;9.000;2023-07-16T04:12:14;5.65;;;3.53;;
56037;SDS011;41907;47.848;9.000;2023-07-16T04:14:39;10.00;;;5.38;;
56037;SDS011;41907;47.848;9.000;2023-07-16T04:17:04;8.60;;;6.10;;
56037;SDS011;41907;47.848;9.000;2023-07-16T04:19:30;9.25;;;5.88;;
56037;SDS011;41907;47.848;9.000;2023-07-16T04:21:55;5.47;;;3.00;;
56037;SDS011;41907;47.848;9.000;2023-07-16T04:24:21;12.63;;;9.05;;
56037;SDS011;41907;47.848;9.000;2023-07-16T04:26:46;8.77;;;5.03;;
56037;SDS011;41907;47.848;9.000;2023-07-16T04:29:12;6.45;;;3.55;;
56037;SDS011;41907;47.848;9.000;2023-07-16T04:31:37;3.53;;;2.08;;
56037;SDS011;41907;47.848;9.000;2023-07-16T04:34:02;8.10;;;3.70;;
56037;SDS011;41907;47.848;9.000;2023-07-16T04:36:28;6.78;;;4.68;;
56037;SDS011;41907;47.848;9.000;2023-07-16T04:38:53;6.25;;;3.58;;
56037;SDS011;41907;47.848;9.000;2023-07-16T04:41:19;8.80;;;4.05;;
56037;SDS011;41907;47.848;9.000;2023-07-16T04:43:44;9.68;;;4.20;;
56037;SDS011;41907;47.848;9.000;2023-07-16T04:46:09;6.40;;;3.30;;
56037;SDS011;41907;47.848;9.000;2023-07-16T04:48:36;6.05;;;2.90;;
56037;SDS011;41907;47.848;9.000;2023-07-16T04:51:02;3.60;;;2.78;;
56037;SDS011;41907;47.848;9.000;2023-07-16T04:53:27;5.43;;;3.25;;
56037;SDS011;41907;47.848;9.000;2023-07-16T04:55:53;2.47;;;1.83;;
56037;SDS011;41907;47.848;9.000;2023-07-16T04:58:18;4.32;;;2.90;;
56037;SDS011;41907;47.848;9.000;2023-07-16T05:00:43;11.95;;;8.23;;
56037;SDS011;41907;47.848;9.000;2023-07-16T05:03:09;9.82;;;7.00;;
56037;SDS011;41907;47.848;9.000;2023-07-16T05:05:34;7.80;;;5.40;;
56037;SDS011;41907;47.848;9.000;2023-07-16T05:08:00;6.68;;;4.35;;
56037;SDS011;41907;47.848;9.000;2023-07-16T05:10:26;8.75;;;6.43;;
56037;SDS011;41907;47.848;9.000;2023-07-16T05:12:52;15.05;;;11.93;;
56037;SDS011;41907;47.848;9.000;2023-07-16T05:15:17;16.33;;;11.55;;
56037;SDS011;41907;47.848;9.000;2023-07-16T05:17:43;18.20;;;14.02;;
56037;SDS011;41907;47.848;9.000;2023-07-16T05:20:08;13.77;;;11.45;;
56037;SDS011;41907;47.848;9.000;2023-07-16T05:22:34;6.72;;;3.38;;
56037;SDS011;41907;47.848;9.000;2023-07-16T05:25:00;3.10;;;1.70;;
56037;SDS011;41907;47.848;9.000;2023-07-16T05:27:25;2.70;;;1.33;;
56037;SDS011;41907;47.848;9.000;2023-07-16T05:29:50;4.05;;;2.03;;
56037;SDS011;41907;47.848;9.000;2023-07-16T05:32:16;1.92;;;1.23;;
56037;SDS011;41907;47.848;9.000;2023-07-16T05:34:41;2.40;;;1.27;;
56037;SDS011;41907;47.848;9.000;2023-07-16T05:37:06;2.25;;;1.00;;
56037;SDS011;41907;47.848;9.000;2023-07-16T05:39:32;1.48;;;1.20;;
56037;SDS011;41907;47.848;9.000;2023-07-16T05:41:57;2.10;;;1.30;;
56037;SDS011;41907;47.848;9.000;2023-07-16T05:44:22;2.13;;;1.17;;
56037;SDS011;41907;47.848;9.000;2023-07-16T05:46:48;2.70;;;1.10;;
56037;SDS011;41907;47.848;9.000;2023-07-16T05:49:13;4.45;;;0.90;;
56037;SDS011;41907;47.848;9.000;2023-07-16T05:51:39;1.88;;;1.20;;
56037;SDS011;41907;47.848;9.000;2023-07-16T05:54:04;1.48;;;1.10;;
56037;SDS011;41907;47.848;9.000;2023-07-16T05:56:30;3.38;;;1.60;;
56037;SDS011;41907;47.848;9.000;2023-07-16T05:58:55;9.60;;;6.60;;
56037;SDS011;41907;47.848;9.000;2023-07-16T06:01:21;18.25;;;13.85;;
56037;SDS011;41907;47.848;9.000;2023-07-16T06:03:47;2.10;;;1.90;;
56037;SDS011;41907;47.848;9.000;2023-07-16T06:06:12;1.27;;;1.02;;
56037;SDS011;41907;47.848;9.000;2023-07-16T06:08:37;2.67;;;1.40;;
56037;SDS011;41907;47.848;9.000;2023-07-16T06:11:03;8.57;;;3.92;;
56037;SDS011;41907;47.848;9.000;2023-07-16T06:13:29;11.13;;;9.70;;
56037;SDS011;41907;47.848;9.000;2023-07-16T06:15:54;19.27;;;16.75;;
56037;SDS011;41907;47.848;9.000;2023-07-16T06:18:19;17.67;;;15.90;;
56037;SDS011;41907;47.848;9.000;2023-07-16T06:20:45;7.35;;;6.65;;
56037;SDS011;41907;47.848;9.000;2023-07-16T06:23:11;5.13;;;4.18;;
56037;SDS011;41907;47.848;9.000;2023-07-16T06:25:37;3.05;;;1.83;;
56037;SDS011;41907;47.848;9.000;2023-07-16T06:28:03;4.57;;;1.30;;
56037;SDS011;41907;47.848;9.000;2023-07-16T06:30:29;1.40;;;1.00;;
56037;SDS011;41907;47.848;9.000;2023-07-16T06:32:57;3.65;;;1.40;;
56037;SDS011;41907;47.848;9.000;2023-07-16T06:35:22;1.42;;;1.00;;
56037;SDS011;41907;47.848;9.000;2023-07-16T06:37:47;1.77;;;0.82;;
56037;SDS011;41907;47.848;9.000;2023-07-16T06:40:13;10.15;;;7.18;;
56037;SDS011;41907;47.848;9.000;2023-07-16T06:42:38;3.63;;;2.30;;
56037;SDS011;41907;47.848;9.000;2023-07-16T06:45:04;6.45;;;4.15;;
56037;SDS011;41907;47.848;9.000;2023-07-16T06:47:30;3.03;;;1.50;;
56037;SDS011;41907;47.848;9.000;2023-07-16T06:49:55;3.95;;;1.23;;
56037;SDS011;41907;47.848;9.000;2023-07-16T06:52:21;3.80;;;1.50;;
56037;SDS011;41907;47.848;9.000;2023-07-16T06:54:47;6.22;;;4.40;;
56037;SDS011;41907;47.848;9.000;2023-07-16T06:57:13;7.53;;;5.40;;
56037;SDS011;41907;47.848;9.000;2023-07-16T06:59:38;3.95;;;1.48;;
56037;SDS011;41907;47.848;9.000;2023-07-16T07:02:03;2.33;;;1.30;;
56037;SDS011;41907;47.848;9.000;2023-07-16T07:04:29;3.25;;;1.48;;
56037;SDS011;41907;47.848;9.000;2023-07-16T07:06:54;2.33;;;1.40;;
56037;SDS011;41907;47.848;9.000;2023-07-16T07:09:20;2.13;;;1.02;;
56037;SDS011;41907;47.848;9.000;2023-07-16T07:11:45;1.95;;;1.00;;
56037;SDS011;41907;47.848;9.000;2023-07-16T07:14:10;3.22;;;1.20;;
56037;SDS011;41907;47.848;9.000;2023-07-16T07:16:36;3.13;;;1.35;;
56037;SDS011;41907;47.848;9.000;2023-07-16T07:19:01;2.08;;;0.90;;
56037;SDS011;41907;47.848;9.000;2023-07-16T07:21:27;7.82;;;5.85;;
56037;SDS011;41907;47.848;9.000;2023-07-16T07:23:53;3.08;;;1.50;;
56037;SDS011;41907;47.848;9.000;2023-07-16T07:26:18;4.20;;;1.15;;
56037;SDS011;41907;47.848;9.000;2023-07-16T07:28:43;1.85;;;0.77;;
56037;SDS011;41907;47.848;9.000;2023-07-16T07:31:09;2.15;;;1.10;;
56037;SDS011;41907;47.848;9.000;2023-07-16T07:33:34;2.00;;;0.90;;
56037;SDS011;41907;47.848;9.000;2023-07-16T07:35:59;3.58;;;0.95;;
56037;SDS011;41907;47.848;9.000;2023-07-16T07:38:25;1.55;;;1.00;;
56037;SDS011;41907;47.848;9.000;2023-07-16T07:40:50;1.60;;;0.80;;
56037;SDS011;41907;47.848;9.000;2023-07-16T07:43:15;3.13;;;1.10;;
56037;SDS011;41907;47.848;9.000;2023-07-16T07:45:41;3.53;;;1.13;;
56037;SDS011;41907;47.848;9.000;2023-07-16T07:48:07;1.27;;;0.93;;
56037;SDS011;41907;47.848;9.000;2023-07-16T07:50:32;2.88;;;1.40;;
56037;SDS011;41907;47.848;9.000;2023-07-16T07:52:57;8.98;;;7.05;;
56037;SDS011;41907;47.848;9.000;2023-07-16T07:55:23;6.40;;;4.50;;
56037;SDS011;41907;47.848;9.000;2023-07-16T07:57:48;1.70;;;0.88;;
56037;SDS011;41907;47.848;9.000;2023-07-16T08:00:13;6.28;;;2.35;;
56037;SDS011;41907;47.848;9.000;2023-07-16T08:02:40;2.75;;;1.17;;
56037;SDS011;41907;47.848;9.000;2023-07-16T08:05:05;1.33;;;0.95;;
56037;SDS011;41907;47.848;9.000;2023-07-16T08:07:31;2.90;;;1.10;;
56037;SDS011;41907;47.848;9.000;2023-07-16T08:09:56;1.60;;;1.00;;
56037;SDS011;41907;47.848;9.000;2023-07-16T08:12:22;6.45;;;2.70;;
56037;SDS011;41907;47.848;9.000;2023-07-16T08:14:47;4.00;;;1.40;;
56037;SDS011;41907;47.848;9.000;2023-07-16T08:17:13;1.20;;;0.82;;
56037;SDS011;41907;47.848;9.000;2023-07-16T08:19:38;2.25;;;1.05;;
56037;SDS011;41907;47.848;9.000;2023-07-16T08:22:04;1.83;;;0.98;;
56037;SDS011;41907;47.848;9.000;2023-07-16T08:24:29;3.22;;;0.90;;
56037;SDS011;41907;47.848;9.000;2023-07-16T08:26:55;1.73;;;0.82;;
56037;SDS011;41907;47.848;9.000;2023-07-16T08:29:20;1.38;;;1.00;;
56037;SDS011;41907;47.848;9.000;2023-07-16T08:31:45;0.85;;;0.80;;
56037;SDS011;41907;47.848;9.000;2023-07-16T08:34:11;1.10;;;0.95;;
56037;SDS011;41907;47.848;9.000;2023-07-16T08:36:36;4.38;;;1.55;;
56037;SDS011;41907;47.848;9.000;2023-07-16T08:39:03;6.90;;;5.15;;
56037;SDS011;41907;47.848;9.000;2023-07-16T08:41:28;3.17;;;2.72;;
56037;SDS011;41907;47.848;9.000;2023-07-16T08:43:54;1.50;;;1.20;;
56037;SDS011;41907;47.848;9.000;2023-07-16T08:46:20;3.53;;;1.25;;
56037;SDS011;41907;47.848;9.000;2023-07-16T08:48:45;2.45;;;0.95;;
56037;SDS011;41907;47.848;9.000;2023-07-16T08:51:11;3.47;;;1.13;;
56037;SDS011;41907;47.848;9.000;2023-07-16T08:53:39;2.88;;;0.98;;
56037;SDS011;41907;47.848;9.000;2023-07-16T08:56:05;2.78;;;0.93;;
56037;SDS011;41907;47.848;9.000;2023-07-16T08:58:30;2.55;;;1.15;;
56037;SDS011;41907;47.848;9.000;2023-07-16T09:00:56;2.92;;;1.00;;
56037;SDS011;41907;47.848;9.000;2023-07-16T09:03:23;1.40;;;0.90;;
56037;SDS011;41907;47.848;9.000;2023-07-16T09:05:48;2.50;;;1.35;;
56037;SDS011;41907;47.848;9.000;2023-07-16T09:08:14;1.75;;;1.13;;
56037;SDS011;41907;47.848;9.000;2023-07-16T09:10:40;3.13;;;1.98;;
56037;SDS011;41907;47.848;9.000;2023-07-16T09:13:06;5.65;;;1.42;;
56037;SDS011;41907;47.848;9.000;2023-07-16T09:15:31;6.20;;;4.45;;
56037;SDS011;41907;47.848;9.000;2023-07-16T09:17:59;2.33;;;1.50;;
56037;SDS011;41907;47.848;9.000;2023-07-16T09:20:25;2.45;;;1.48;;
56037;SDS011;41907;47.848;9.000;2023-07-16T09:22:53;3.55;;;0.95;;
56037;SDS011;41907;47.848;9.000;2023-07-16T09:25:24;2.10;;;1.00;;
56037;SDS011;41907;47.848;9.000;2023-07-16T09:28:03;1.30;;;1.20;;
56037;SDS011;41907;47.848;9.000;2023-07-16T09:30:32;2.55;;;1.00;;
56037;SDS011;41907;47.848;9.000;2023-07-16T09:33:03;2.95;;;1.15;;
56037;SDS011;41907;47.848;9.000;2023-07-16T09:35:39;1.92;;;0.98;;
56037;SDS011;41907;47.848;9.000;2023-07-16T09:38:04;1.88;;;1.00;;
56037;SDS011;41907;47.848;9.000;2023-07-16T09:40:32;3.35;;;0.90;;
56037;SDS011;41907;47.848;9.000;2023-07-16T09:42:57;2.30;;;1.00;;
56037;SDS011;41907;47.848;9.000;2023-07-16T09:45:23;1.10;;;0.90;;
56037;SDS011;41907;47.848;9.000;2023-07-16T09:47:49;1.45;;;1.00;;
56037;SDS011;41907;47.848;9.000;2023-07-16T09:50:14;1.83;;;1.23;;
56037;SDS011;41907;47.848;9.000;2023-07-16T09:52:40;4.45;;;1.00;;
56037;SDS011;41907;47.848;9.000;2023-07-16T09:55:08;2.97;;;1.23;;
56037;SDS011;41907;47.848;9.000;2023-07-16T09:57:35;2.58;;;1.10;;
56037;SDS011;41907;47.848;9.000;2023-07-16T10:00:07;1.90;;;1.10;;
56037;SDS011;41907;47.848;9.000;2023-07-16T10:02:38;3.33;;;1.20;;
56037;SDS011;41907;47.848;9.000;2023-07-16T10:05:16;2.30;;;1.00;;
56037;SDS011;41907;47.848;9.000;2023-07-16T10:07:54;2.22;;;1.40;;
56037;SDS011;41907;47.848;9.000;2023-07-16T10:10:25;3.88;;;1.80;;
56037;SDS011;41907;47.848;9.000;2023-07-16T10:12:55;1.45;;;1.17;;
56037;SDS011;41907;47.848;9.000;2023-07-16T10:15:25;3.05;;;1.58;;
56037;SDS011;41907;47.848;9.000;2023-07-16T10:17:52;2.60;;;1.38;;
56037;SDS011;41907;47.848;9.000;2023-07-16T10:20:27;2.45;;;1.50;;
56037;SDS011;41907;47.848;9.000;2023-07-16T10:22:54;3.55;;;1.35;;
56037;SDS011;41907;47.848;9.000;2023-07-16T10:27:45;5.47;;;2.80;;
56037;SDS011;41907;47.848;9.000;2023-07-16T10:30:12;3.80;;;1.30;;
56037;SDS011;41907;47.848;9.000;2023-07-16T10:32:37;1.70;;;1.60;;
56037;SDS011;41907;47.848;9.000;2023-07-16T10:35:04;1.45;;;1.27;;
56037;SDS011;41907;47.848;9.000;2023-07-16T10:37:30;3.13;;;2.13;;
56037;SDS011;41907;47.848;9.000;2023-07-16T10:39:57;4.00;;;1.80;;
56037;SDS011;41907;47.848;9.000;2023-07-16T10:42:24;10.18;;;6.88;;
56037;SDS011;41907;47.848;9.000;2023-07-16T10:44:51;3.47;;;2.50;;
56037;SDS011;41907;47.848;9.000;2023-07-16T10:47:39;7.38;;;4.65;;
56037;SDS011;41907;47.848;9.000;2023-07-16T10:50:06;1.20;;;1.10;;
56037;SDS011;41907;47.848;9.000;2023-07-16T10:52:33;2.20;;;1.15;;
56037;SDS011;41907;47.848;9.000;2023-07-16T10:54:59;1.83;;;1.23;;
56037;SDS011;41907;47.848;9.000;2023-07-16T10:57:25;1.15;;;1.02;;
56037;SDS011;41907;47.848;9.000;2023-07-16T10:59:51;2.38;;;1.20;;
56037;SDS011;41907;47.848;9.000;2023-07-16T11:02:17;1.33;;;0.95;;
56037;SDS011;41907;47.848;9.000;2023-07-16T11:04:44;3.67;;;1.20;;
56037;SDS011;41907;47.848;9.000;2023-07-16T11:07:12;2.45;;;1.30;;
56037;SDS011;41907;47.848;9.000;2023-07-16T11:12:13;1.70;;;1.33;;
56037;SDS011;41907;47.848;9.000;2023-07-16T11:14:43;1.58;;;1.00;;
56037;SDS011;41907;47.848;9.000;2023-07-16T11:17:14;1.83;;;1.08;;
56037;SDS011;41907;47.848;9.000;2023-07-16T11:19:40;2.25;;;1.02;;
56037;SDS011;41907;47.848;9.000;2023-07-16T11:22:09;1.30;;;1.20;;
56037;SDS011;41907;47.848;9.000;2023-07-16T11:24:38;1.77;;;1.42;;
56037;SDS011;41907;47.848;9.000;2023-07-16T11:27:06;1.70;;;1.20;;
56037;SDS011;41907;47.848;9.000;2023-07-16T11:29:40;2.77;;;1.47;;
56037;SDS011;41907;47.848;9.000;2023-07-16T11:32:09;2.25;;;1.10;;
56037;SDS011;41907;47.848;9.000;2023-07-16T11:34:34;2.63;;;1.20;;
56037;SDS011;41907;47.848;9.000;2023-07-16T11:37:10;1.52;;;1.30;;
56037;SDS011;41907;47.848;9.000;2023-07-16T11:39:36;4.25;;;2.95;;
56037;SDS011;41907;47.848;9.000;2023-07-16T11:42:02;3.00;;;2.15;;
56037;SDS011;41907;47.848;9.000;2023-07-16T11:44:36;2.22;;;1.23;;
56037;SDS011;41907;47.848;9.000;2023-07-16T11:47:02;4.30;;;2.75;;
56037;SDS011;41907;47.848;9.000;2023-07-16T11:49:28;2.92;;;1.70;;
56037;SDS011;41907;47.848;9.000;2023-07-16T11:51:54;3.42;;;2.13;;
56037;SDS011;41907;47.848;9.000;2023-07-16T11:54:19;2.28;;;1.65;;
56037;SDS011;41907;47.848;9.000;2023-07-16T11:56:45;3.30;;;1.42;;
56037;SDS011;41907;47.848;9.000;2023-07-16T11:59:12;1.75;;;1.33;;
56037;SDS011;41907;47.848;9.000;2023-07-16T12:01:37;1.48;;;1.33;;
56037;SDS011;41907;47.848;9.000;2023-07-16T12:04:03;4.90;;;2.78;;
56037;SDS011;41907;47.848;9.000;2023-07-16T12:06:28;3.50;;;2.30;;
56037;SDS011;41907;47.848;9.000;2023-07-16T12:08:54;3.20;;;1.95;;
56037;SDS011;41907;47.848;9.000;2023-07-16T12:11:20;3.67;;;2.40;;
56037;SDS011;41907;47.848;9.000;2023-07-16T12:13:46;4.82;;;1.63;;
56037;SDS011;41907;47.848;9.000;2023-07-16T12:16:11;3.63;;;1.50;;
56037;SDS011;41907;47.848;9.000;2023-07-16T12:18:36;3.28;;;2.00;;
56037;SDS011;41907;47.848;9.000;2023-07-16T12:21:02;2.42;;;1.60;;
56037;SDS011;41907;47.848;9.000;2023-07-16T12:23:27;2.00;;;1.40;;
56037;SDS011;41907;47.848;9.000;2023-07-16T12:25:53;4.72;;;2.83;;
56037;SDS011;41907;47.848;9.000;2023-07-16T12:28:18;4.32;;;1.60;;
56037;SDS011;41907;47.848;9.000;2023-07-16T12:30:43;2.10;;;1.40;;
56037;SDS011;41907;47.848;9.000;2023-07-16T12:33:09;1.40;;;1.30;;
56037;SDS011;41907;47.848;9.000;2023-07-16T12:35:34;2.72;;;1.17;;
56037;SDS011;41907;47.848;9.000;2023-07-16T12:37:59;3.30;;;1.42;;
56037;SDS011;41907;47.848;9.000;2023-07-16T12:40:27;1.90;;;1.50;;
56037;SDS011;41907;47.848;9.000;2023-07-16T12:42:54;3.75;;;1.50;;
56037;SDS011;41907;47.848;9.000;2023-07-16T12:45:20;2.17;;;1.65;;
56037;SDS011;41907;47.848;9.000;2023-07-16T12:47:45;4.30;;;1.58;;
56037;SDS011;41907;47.848;9.000;2023-07-16T12:50:10;2.13;;;1.42;;
56037;SDS011;41907;47.848;9.000;2023-07-16T12:52:36;1.98;;;1.58;;
56037;SDS011;41907;47.848;9.000;2023-07-16T12:55:01;2.45;;;1.50;;
56037;SDS011;41907;47.848;9.000;2023-07-16T12:57:26;3.17;;;1.50;;
56037;SDS011;41907;47.848;9.000;2023-07-16T12:59:52;1.52;;;1.30;;
56037;SDS011;41907;47.848;9.000;2023-07-16T13:02:17;3.47;;;1.65;;
56037;SDS011;41907;47.848;9.000;2023-07-16T13:04:43;3.22;;;1.50;;
56037;SDS011;41907;47.848;9.000;2023-07-16T13:07:08;3.38;;;1.45;;
56037;SDS011;41907;47.848;9.000;2023-07-16T13:09:33;3.10;;;1.40;;
56037;SDS011;41907;47.848;9.000;2023-07-16T13:11:59;3.50;;;1.50;;
56037;SDS011;41907;47.848;9.000;2023-07-16T13:14:24;5.50;;;1.85;;
56037;SDS011;41907;47.848;9.000;2023-07-16T13:16:49;6.13;;;1.73;;
56037;SDS011;41907;47.848;9.000;2023-07-16T13:19:15;1.65;;;1.30;;
56037;SDS011;41907;47.848;9.000;2023-07-16T13:21:40;2.08;;;1.30;;
56037;SDS011;41907;47.848;9.000;2023-07-16T13:24:05;3.22;;;1.55;;
56037;SDS011;41907;47.848;9.000;2023-07-16T13:26:31;1.80;;;1.10;;
56037;SDS011;41907;47.848;9.000;2023-07-16T13:28:56;2.58;;;1.42;;
56037;SDS011;41907;47.848;9.000;2023-07-16T13:31:21;2.65;;;1.30;;
56037;SDS011;41907;47.848;9.000;2023-07-16T13:33:46;1.75;;;1.10;;
56037;SDS011;41907;47.848;9.000;2023-07-16T13:36:12;3.03;;;1.42;;
56037;SDS011;41907;47.848;9.000;2023-07-16T13:38:37;1.83;;;1.20;;
56037;SDS011;41907;47.848;9.000;2023-07-16T13:41:02;2.95;;;1.42;;
56037;SDS011;41907;47.848;9.000;2023-07-16T13:43:28;1.35;;;1.25;;
56037;SDS011;41907;47.848;9.000;2023-07-16T13:45:53;2.53;;;1.63;;
56037;SDS011;41907;47.848;9.000;2023-07-16T13:48:19;2.63;;;1.55;;
56037;SDS011;41907;47.848;9.000;2023-07-16T13:50:44;3.05;;;1.40;;
56037;SDS011;41907;47.848;9.000;2023-07-16T13:53:10;4.57;;;2.10;;
56037;SDS011;41907;47.848;9.000;2023-07-16T13:55:36;3.05;;;1.70;;
56037;SDS011;41907;47.848;9.000;2023-07-16T13:58:01;5.40;;;1.90;;
56037;SDS011;41907;47.848;9.000;2023-07-16T14:00:26;3.53;;;1.40;;
56037;SDS011;41907;47.848;9.000;2023-07-16T14:02:52;2.65;;;1.58;;
56037;SDS011;41907;47.848;9.000;2023-07-16T14:05:17;1.83;;;1.27;;
56037;SDS011;41907;47.848;9.000;2023-07-16T14:07:42;2.38;;;1.50;;
56037;SDS011;41907;47.848;9.000;2023-07-16T14:10:08;1.63;;;1.20;;
56037;SDS011;41907;47.848;9.000;2023-07-16T14:12:33;4.45;;;1.50;;
56037;SDS011;41907;47.848;9.000;2023-07-16T14:14:59;2.13;;;1.25;;
56037;SDS011;41907;47.848;9.000;2023-07-16T14:17:25;6.15;;;1.40;;
56037;SDS011;41907;47.848;9.000;2023-07-16T14:19:50;2.08;;;1.38;;
56037;SDS011;41907;47.848;9.000;2023-07-16T14:22:16;3.45;;;1.50;;
56037;SDS011;41907;47.848;9.000;2023-07-16T14:24:42;2.40;;;1.40;;
56037;SDS011;41907;47.848;9.000;2023-07-16T14:27:07;4.15;;;1.90;;
56037;SDS011;41907;47.848;9.000;2023-07-16T14:29:36;3.90;;;1.80;;
56037;SDS011;41907;47.848;9.000;2023-07-16T14:32:01;5.05;;;1.80;;
56037;SDS011;41907;47.848;9.000;2023-07-16T14:34:27;3.63;;;1.30;;
56037;SDS011;41907;47.848;9.000;2023-07-16T14:36:53;3.15;;;1.80;;
56037;SDS011;41907;47.848;9.000;2023-07-16T14:39:18;2.47;;;1.65;;
56037;SDS011;41907;47.848;9.000;2023-07-16T14:41:44;4.80;;;2.05;;
56037;SDS011;41907;47.848;9.000;2023-07-16T14:44:10;3.33;;;2.10;;
56037;SDS011;41907;47.848;9.000;2023-07-16T14:46:36;1.88;;;1.42;;
56037;SDS011;41907;47.848;9.000;2023-07-16T14:49:02;2.38;;;1.33;;
56037;SDS011;41907;47.848;9.000;2023-07-16T14:51:28;4.25;;;2.38;;
56037;SDS011;41907;47.848;9.000;2023-07-16T14:53:54;5.53;;;3.05;;
56037;SDS011;41907;47.848;9.000;2023-07-16T14:56:20;1.85;;;1.50;;